createdAt,value
2018-10-03T00:01:42.289Z,72.96
2018-10-03T00:04:09.640Z,73.60
2018-10-03T00:06:36.956Z,73.13
2018-10-03T00:09:06.207Z,73.40
2018-10-03T00:11:33.483Z,72.93
2018-10-03T00:14:00.713Z,72.53
2018-10-03T00:16:27.960Z,72.79
2018-10-03T00:21:49.226Z,72.67
2018-10-03T00:24:16.548Z,73.34
2018-10-03T00:26:43.780Z,73.13
2018-10-03T00:29:11.102Z,73.95
2018-10-03T00:31:38.349Z,74.07
2018-10-03T00:34:05.626Z,74.36
2018-10-03T00:36:32.895Z,74.10
2018-10-03T00:39:00.173Z,74.50
2018-10-03T00:41:27.420Z,75.11
2018-10-03T00:43:54.723Z,74.98
2018-10-03T00:46:22.068Z,74.77
2018-10-03T00:48:49.412Z,74.77
2018-10-03T00:51:16.703Z,74.74
2018-10-03T00:53:44.653Z,74.68
2018-10-03T00:56:11.986Z,74.68
2018-10-03T00:58:39.977Z,74.52
2018-10-03T01:01:07.311Z,74.50
2018-10-03T01:03:34.636Z,75.56
2018-10-03T01:06:01.986Z,75.84
2018-10-03T01:08:30.254Z,76.52
2018-10-03T01:10:58.772Z,76.75
2018-10-03T01:13:26.636Z,77.11
2018-10-03T01:15:53.889Z,76.91
2018-10-03T01:18:21.168Z,77.19
2018-10-03T01:20:48.746Z,76.85
2018-10-03T01:23:15.992Z,77.09
2018-10-03T01:25:43.348Z,76.93
2018-10-03T01:28:10.670Z,76.93
2018-10-03T01:30:38.030Z,76.42
2018-10-03T01:33:05.369Z,76.26
2018-10-03T01:35:32.683Z,76.46
2018-10-03T01:37:59.997Z,76.90
2018-10-03T01:40:27.290Z,76.54
2018-10-03T01:42:55.467Z,76.49
2018-10-03T01:45:22.930Z,76.71
2018-10-03T01:47:50.514Z,76.16
2018-10-03T01:50:17.933Z,75.64
2018-10-03T01:52:45.967Z,75.60
2018-10-03T01:55:13.470Z,75.71
2018-10-03T01:57:40.836Z,75.23
2018-10-03T02:00:08.150Z,75.47
2018-10-03T02:02:36.056Z,75.94
2018-10-03T02:05:03.500Z,75.72
2018-10-03T02:07:30.845Z,74.99
2018-10-03T02:09:58.224Z,75.28
2018-10-03T02:12:25.529Z,74.88
2018-10-03T02:14:52.905Z,75.08
2018-10-03T02:17:20.458Z,74.42
2018-10-03T02:19:47.809Z,74.87
2018-10-03T02:22:15.142Z,74.49
2018-10-03T02:24:42.430Z,74.35
2018-10-03T02:27:09.787Z,74.44
2018-10-03T02:29:37.157Z,74.02
2018-10-03T02:32:04.504Z,74.61
2018-10-03T02:34:31.834Z,74.43
2018-10-03T02:37:00.329Z,74.99
2018-10-03T02:39:27.681Z,75.40
2018-10-03T02:41:55.086Z,76.19
2018-10-03T02:44:23.072Z,75.83
2018-10-03T02:46:50.388Z,74.99
2018-10-03T02:49:17.694Z,75.11
2018-10-03T02:51:44.996Z,75.51
2018-10-03T02:54:12.265Z,75.61
2018-10-03T02:56:39.571Z,75.89
2018-10-03T02:59:08.329Z,76.44
2018-10-03T03:01:35.760Z,76.50
2018-10-03T03:04:03.034Z,77.30
2018-10-03T03:06:31.140Z,76.78
2018-10-03T03:08:58.521Z,77.38
2018-10-03T03:11:25.856Z,76.48
2018-10-03T03:13:53.167Z,76.36
2018-10-03T03:16:20.619Z,76.16
2018-10-03T03:18:49.488Z,74.47
2018-10-03T03:21:18.707Z,73.35
2018-10-03T03:23:47.380Z,71.99
2018-10-03T03:26:15.968Z,70.98
2018-10-03T03:28:43.297Z,70.46
2018-10-03T03:31:11.181Z,69.10
2018-10-03T03:33:38.541Z,68.75
2018-10-03T03:36:05.914Z,68.54
2018-10-03T03:38:33.359Z,68.18
2018-10-03T03:41:01.383Z,68.14
2018-10-03T03:43:30.965Z,67.61
2018-10-03T03:45:59.071Z,67.76
2018-10-03T03:48:26.440Z,67.94
2018-10-03T03:50:53.798Z,67.67
2018-10-03T03:53:21.134Z,68.24
2018-10-03T03:55:48.498Z,67.61
2018-10-03T03:58:15.862Z,67.66
2018-10-03T04:00:44.425Z,67.55
2018-10-03T04:03:11.758Z,68.76
2018-10-03T04:05:39.273Z,68.98
2018-10-03T04:08:06.651Z,69.22
2018-10-03T04:10:33.985Z,69.73
2018-10-03T04:13:01.416Z,69.29
2018-10-03T04:15:28.759Z,69.12
2018-10-03T04:17:56.101Z,68.75
2018-10-03T04:20:23.430Z,68.78
2018-10-03T04:22:50.803Z,68.63
2018-10-03T04:25:18.073Z,69.36
2018-10-03T04:27:46.716Z,69.60
2018-10-03T04:30:14.084Z,69.49
2018-10-03T04:32:41.423Z,69.97
2018-10-03T04:35:08.835Z,69.85
2018-10-03T04:37:36.177Z,70.19
2018-10-03T04:40:03.517Z,69.51
2018-10-03T04:42:30.870Z,69.25
2018-10-03T04:44:58.304Z,67.80
2018-10-03T04:47:25.714Z,67.25
2018-10-03T04:49:53.348Z,67.76
2018-10-03T04:52:20.820Z,67.58
2018-10-03T04:54:48.083Z,67.49
2018-10-03T04:57:15.402Z,67.52
2018-10-03T04:59:42.778Z,67.19
2018-10-03T05:02:10.180Z,67.65
2018-10-03T05:04:37.508Z,67.56
2018-10-03T05:07:06.152Z,67.07
2018-10-03T05:09:33.514Z,66.27
2018-10-03T05:12:00.965Z,65.42
2018-10-03T05:14:28.585Z,65.79
2018-10-03T05:16:59.884Z,66.00
2018-10-03T05:19:27.479Z,66.41
2018-10-03T05:24:47.540Z,65.61
2018-10-03T05:27:16.969Z,65.49
2018-10-03T05:29:44.797Z,65.85
2018-10-03T05:32:12.970Z,65.41
2018-10-03T05:37:15.745Z,65.83
2018-10-03T05:39:45.628Z,65.87
2018-10-03T05:42:13.878Z,65.95
2018-10-03T05:44:42.633Z,65.79
2018-10-03T05:47:13.817Z,65.94
2018-10-03T05:49:47.226Z,65.74
2018-10-03T05:52:14.617Z,65.80
2018-10-03T05:54:42.039Z,65.68
2018-10-03T05:57:11.681Z,65.86
2018-10-03T05:59:40.521Z,65.70
2018-10-03T06:02:08.048Z,65.61
2018-10-03T06:04:37.263Z,64.91
2018-10-03T06:07:05.598Z,65.32
2018-10-03T06:09:33.189Z,65.09
2018-10-03T06:12:01.932Z,65.08
2018-10-03T06:14:29.507Z,64.86
2018-10-03T06:16:56.968Z,65.55
2018-10-03T06:19:24.437Z,66.00
2018-10-03T06:21:52.032Z,65.94
2018-10-03T06:24:19.701Z,65.89
2018-10-03T06:26:47.160Z,65.83
2018-10-03T06:29:14.804Z,65.59
2018-10-03T06:31:43.263Z,65.74
2018-10-03T06:34:10.885Z,64.57
2018-10-03T06:36:38.466Z,65.01
2018-10-03T06:39:07.358Z,64.81
2018-10-03T06:41:34.913Z,64.47
2018-10-03T06:44:03.262Z,65.09
2018-10-03T06:46:30.972Z,64.90
2018-10-03T06:48:59.036Z,63.83
2018-10-03T06:51:26.554Z,64.08
2018-10-03T06:53:54.163Z,63.81
2018-10-03T06:56:22.313Z,63.11
2018-10-03T06:58:49.819Z,62.95
2018-10-03T07:01:17.811Z,62.65
2018-10-03T07:03:45.380Z,61.85
2018-10-03T07:06:15.013Z,62.09
2018-10-03T07:08:44.769Z,61.82
2018-10-03T07:11:14.496Z,61.55
2018-10-03T07:13:44.906Z,60.99
2018-10-03T07:16:12.495Z,60.89
2018-10-03T07:18:41.133Z,60.68
2018-10-03T07:21:08.974Z,60.04
2018-10-03T07:23:53.459Z,58.81
2018-10-03T07:26:20.970Z,59.55
2018-10-03T07:28:49.219Z,59.07
2018-10-03T07:31:17.194Z,58.97
2018-10-03T07:33:44.714Z,58.47
2018-10-03T07:36:19.104Z,57.84
2018-10-03T07:38:46.666Z,57.89
2018-10-03T07:41:14.674Z,57.95
2018-10-03T07:43:42.849Z,58.67
2018-10-03T07:46:11.316Z,57.70
2018-10-03T07:48:38.717Z,57.51
2018-10-03T07:51:06.243Z,57.32
2018-10-03T07:53:33.862Z,56.80
2018-10-03T07:56:04.058Z,56.45
2018-10-03T07:58:31.611Z,56.97
2018-10-03T08:01:00.642Z,56.00
2018-10-03T08:03:28.154Z,56.81
2018-10-03T08:05:55.526Z,56.45
2018-10-03T08:08:23.094Z,56.43
2018-10-03T08:10:50.595Z,55.88
2018-10-03T08:13:18.682Z,55.61
2018-10-03T08:15:48.026Z,54.33
2018-10-03T08:18:16.890Z,54.68
2018-10-03T08:20:45.567Z,54.69
2018-10-03T08:23:14.537Z,55.48
2018-10-03T08:25:42.048Z,56.69
2018-10-03T08:28:10.217Z,56.51
2018-10-03T08:33:18.176Z,56.12
2018-10-03T08:35:55.823Z,55.92
2018-10-03T08:38:24.178Z,56.76
2018-10-03T08:40:51.713Z,56.50
2018-10-03T08:43:22.476Z,55.54
2018-10-03T08:45:50.638Z,54.91
2018-10-03T08:48:18.907Z,55.48
2018-10-03T08:50:46.420Z,55.66
2018-10-03T08:53:14.679Z,54.94
2018-10-03T08:55:42.244Z,54.13
2018-10-03T08:58:11.430Z,53.67
2018-10-03T09:00:38.919Z,53.17
2018-10-03T09:03:06.435Z,54.62
2018-10-03T09:05:34.108Z,55.64
2018-10-03T09:08:17.851Z,56.10
2018-10-03T09:10:47.516Z,54.76
2018-10-03T09:13:15.705Z,53.56
2018-10-03T09:15:43.884Z,52.41
2018-10-03T09:18:12.309Z,52.85
2018-10-03T09:20:39.867Z,53.60
2018-10-03T09:23:07.413Z,54.87
2018-10-03T09:25:37.593Z,55.00
2018-10-03T09:28:09.314Z,54.57
2018-10-03T09:30:37.340Z,53.73
2018-10-03T09:33:06.629Z,51.87
2018-10-03T09:35:35.915Z,51.97
2018-10-03T09:38:03.525Z,52.96
2018-10-03T09:40:32.329Z,53.45
2018-10-03T09:43:00.195Z,53.87
2018-10-03T09:45:29.994Z,53.35
2018-10-03T09:47:58.220Z,52.47
2018-10-03T09:50:27.679Z,52.49
2018-10-03T09:53:00.175Z,50.94
2018-10-03T09:55:29.990Z,48.65
2018-10-03T09:58:02.575Z,48.97
2018-10-03T10:00:36.841Z,48.07
2018-10-03T10:03:05.861Z,48.67
2018-10-03T10:05:33.560Z,48.07
2018-10-03T10:08:01.455Z,46.72
2018-10-03T10:10:33.613Z,47.42
2018-10-03T10:13:05.965Z,46.15
2018-10-03T10:15:34.994Z,45.41
2018-10-03T10:18:02.322Z,43.70
2018-10-03T10:20:30.429Z,42.98
2018-10-03T10:22:58.934Z,43.07
2018-10-03T10:25:29.509Z,44.42
2018-10-03T10:27:58.428Z,44.62
2018-10-03T10:30:26.133Z,43.05
2018-10-03T10:32:55.341Z,42.48
2018-10-03T10:35:23.538Z,43.94
2018-10-03T10:37:51.853Z,44.26
2018-10-03T10:40:20.040Z,43.67
2018-10-03T10:42:48.346Z,43.44
2018-10-03T10:45:20.825Z,42.81
2018-10-03T10:47:50.420Z,44.12
2018-10-03T10:50:18.020Z,45.15
2018-10-03T10:52:46.151Z,45.10
2018-10-03T10:55:15.540Z,44.73
2018-10-03T10:57:43.293Z,44.88
2018-10-03T11:00:11.128Z,45.05
2018-10-03T11:02:40.425Z,44.98
2018-10-03T11:05:08.104Z,46.07
2018-10-03T11:07:35.708Z,46.88
2018-10-03T11:10:05.036Z,47.09
2018-10-03T11:12:33.074Z,44.97
2018-10-03T11:15:01.375Z,43.61
2018-10-03T11:17:29.423Z,43.15
2018-10-03T11:19:57.596Z,43.58
2018-10-03T11:22:26.185Z,44.52
2018-10-03T11:24:53.860Z,45.89
2018-10-03T11:27:24.038Z,45.43
2018-10-03T11:29:51.522Z,46.11
2018-10-03T11:32:19.188Z,45.64
2018-10-03T11:34:49.047Z,45.96
2018-10-03T11:37:17.826Z,43.83
2018-10-03T11:39:46.107Z,43.05
2018-10-03T11:42:14.520Z,43.70
2018-10-03T11:44:43.553Z,44.68
2018-10-03T11:47:12.432Z,45.12
2018-10-03T11:49:44.852Z,44.73
2018-10-03T11:52:13.738Z,44.32
2018-10-03T11:54:45.884Z,43.97
2018-10-03T11:57:15.180Z,43.78
2018-10-03T11:59:49.882Z,44.40
2018-10-03T12:02:18.029Z,44.63
2018-10-03T12:04:45.614Z,44.91
2018-10-03T12:07:19.197Z,45.46
2018-10-03T12:09:49.039Z,44.83
2018-10-03T12:12:17.082Z,43.79
2018-10-03T12:14:45.503Z,42.51
2018-10-03T12:17:13.013Z,41.18
2018-10-03T12:19:41.341Z,41.30
2018-10-03T12:22:10.614Z,41.38
2018-10-03T12:24:41.057Z,42.45
2018-10-03T12:27:10.633Z,42.84
2018-10-03T12:29:38.254Z,42.63
2018-10-03T12:32:12.273Z,42.66
2018-10-03T12:34:40.661Z,43.77
2018-10-03T12:37:10.088Z,43.09
2018-10-03T12:39:39.662Z,43.05
2018-10-03T12:42:08.576Z,42.05
2018-10-03T12:44:37.077Z,42.25
2018-10-03T12:47:23.562Z,40.79
2018-10-03T12:49:55.110Z,41.36
2018-10-03T12:52:24.635Z,41.46
2018-10-03T12:54:52.555Z,42.86
2018-10-03T12:57:20.674Z,43.48
2018-10-03T12:59:50.539Z,42.33
2018-10-03T13:02:19.755Z,42.73
2018-10-03T13:04:48.592Z,40.84
2018-10-03T13:07:16.258Z,37.80
2018-10-03T13:09:48.158Z,39.41
2018-10-03T13:12:16.004Z,39.36
2018-10-03T13:14:46.064Z,39.49
2018-10-03T13:17:16.351Z,40.21
2018-10-03T13:19:45.584Z,40.17
2018-10-03T13:22:13.376Z,40.35
2018-10-03T13:24:41.511Z,40.32
2018-10-03T13:27:09.009Z,40.10
2018-10-03T13:29:36.780Z,40.41
2018-10-03T13:32:06.478Z,41.75
2018-10-03T13:34:36.352Z,41.53
2018-10-03T13:37:04.779Z,42.20
2018-10-03T13:39:33.505Z,42.55
2018-10-03T13:42:02.772Z,42.23
2018-10-03T13:44:32.448Z,42.99
2018-10-03T13:47:01.921Z,44.02
2018-10-03T13:49:29.533Z,43.42
2018-10-03T13:51:58.085Z,43.83
2018-10-03T13:54:26.258Z,44.35
2018-10-03T13:56:55.763Z,43.80
2018-10-03T13:59:23.691Z,43.57
2018-10-03T14:01:52.705Z,43.48
2018-10-03T14:04:22.408Z,42.44
2018-10-03T14:06:50.827Z,42.50
2018-10-03T14:09:19.165Z,41.97
2018-10-03T14:11:46.663Z,42.42
2018-10-03T14:14:14.888Z,41.39
2018-10-03T14:16:43.019Z,42.65
2018-10-03T14:19:11.366Z,42.39
2018-10-03T14:21:39.605Z,41.03
2018-10-03T14:24:07.941Z,41.35
2018-10-03T14:26:36.130Z,40.92
2018-10-03T14:29:04.218Z,40.83
2018-10-03T14:31:31.965Z,41.11
2018-10-03T14:34:00.889Z,41.28
2018-10-03T14:36:28.548Z,41.07
2018-10-03T14:38:59.684Z,41.09
2018-10-03T14:41:27.788Z,41.05
2018-10-03T14:43:55.430Z,41.80
2018-10-03T14:46:23.810Z,41.74
2018-10-03T14:48:52.334Z,41.51
2018-10-03T14:51:20.794Z,42.51
2018-10-03T14:53:48.289Z,42.46
2018-10-03T14:56:16.469Z,43.06
2018-10-03T14:58:43.987Z,42.82
2018-10-03T15:01:12.312Z,42.60
2018-10-03T15:03:40.741Z,42.73
2018-10-03T15:06:09.278Z,42.67
2018-10-03T15:08:36.817Z,41.72
2018-10-03T15:11:05.069Z,40.73
2018-10-03T15:13:33.244Z,41.85
2018-10-03T15:16:01.690Z,41.48
2018-10-03T15:18:29.986Z,41.41
2018-10-03T15:21:00.123Z,41.04
2018-10-03T15:23:29.212Z,41.84
2018-10-03T15:25:56.940Z,41.68
2018-10-03T15:28:24.932Z,41.20
2018-10-03T15:30:55.380Z,42.34
2018-10-03T15:33:23.433Z,43.33
2018-10-03T15:35:51.102Z,43.71
2018-10-03T15:38:19.772Z,44.21
2018-10-03T15:40:47.427Z,43.75
2018-10-03T15:43:17.502Z,44.43
2018-10-03T15:45:46.088Z,44.38
2018-10-03T15:48:13.882Z,44.35
2018-10-03T15:50:42.521Z,44.13
2018-10-03T15:53:10.081Z,44.16
2018-10-03T15:55:38.193Z,44.65
2018-10-03T15:58:05.816Z,44.87
2018-10-03T16:00:34.519Z,45.87
2018-10-03T16:03:03.691Z,45.47
2018-10-03T16:05:32.901Z,45.16
2018-10-03T16:08:01.513Z,45.46
2018-10-03T16:10:29.968Z,45.57
2018-10-03T16:12:57.369Z,45.71
2018-10-03T16:15:25.480Z,45.97
2018-10-03T16:17:54.236Z,46.31
2018-10-03T16:20:24.422Z,47.20
2018-10-03T16:22:53.657Z,47.36
2018-10-03T16:25:21.802Z,47.57
2018-10-03T16:27:49.744Z,47.67
2018-10-03T16:30:17.935Z,48.12
2018-10-03T16:32:45.446Z,48.44
2018-10-03T16:35:17.368Z,47.84
2018-10-03T16:37:44.859Z,48.06
2018-10-03T16:40:12.400Z,48.63
2018-10-03T16:42:40.124Z,48.82
2018-10-03T16:45:08.804Z,48.66
2018-10-03T16:47:37.392Z,48.51
2018-10-03T16:50:05.411Z,48.45
2018-10-03T16:52:32.812Z,49.13
2018-10-03T16:55:00.241Z,48.98
2018-10-03T16:57:27.732Z,49.06
2018-10-03T16:59:55.132Z,49.53
2018-10-03T17:02:22.483Z,49.21
2018-10-03T17:04:49.791Z,49.69
2018-10-03T17:07:17.201Z,49.78
2018-10-03T17:09:45.117Z,50.10
2018-10-03T17:12:12.363Z,50.74
2018-10-03T17:14:40.041Z,51.04
2018-10-03T17:17:08.211Z,50.69
2018-10-03T17:19:35.711Z,51.60
2018-10-03T17:22:04.065Z,51.38
2018-10-03T17:24:33.971Z,51.84
2018-10-03T17:27:01.551Z,52.39
2018-10-03T17:29:28.842Z,52.81
2018-10-03T17:31:56.153Z,52.71
2018-10-03T17:34:23.372Z,53.31
2018-10-03T17:36:51.957Z,53.82
2018-10-03T17:39:20.471Z,54.14
2018-10-03T17:41:47.752Z,53.41
2018-10-03T17:44:16.630Z,53.55
2018-10-03T17:46:44.445Z,54.38
2018-10-03T17:49:11.743Z,54.05
2018-10-03T17:51:39.060Z,54.15
2018-10-03T17:54:06.952Z,54.49
2018-10-03T17:56:34.209Z,55.18
2018-10-03T17:59:03.186Z,55.14
2018-10-03T18:01:31.941Z,55.27
2018-10-03T18:03:59.323Z,56.02
2018-10-03T18:06:26.681Z,56.52
2018-10-03T18:08:53.940Z,57.04
2018-10-03T18:11:21.272Z,57.82
2018-10-03T18:13:48.731Z,57.66
2018-10-03T18:16:16.559Z,58.04
2018-10-03T18:18:43.933Z,58.11
2018-10-03T18:21:12.057Z,58.58
2018-10-03T18:23:39.449Z,58.72
2018-10-03T18:26:06.762Z,58.35
2018-10-03T18:28:34.104Z,58.73
2018-10-03T18:31:01.498Z,58.37
2018-10-03T18:33:28.800Z,58.17
2018-10-03T18:35:56.065Z,58.51
2018-10-03T18:38:23.465Z,58.96
2018-10-03T18:40:50.699Z,59.45
2018-10-03T18:43:17.984Z,59.67
2018-10-03T18:45:45.384Z,59.41
2018-10-03T18:48:19.315Z,59.51
2018-10-03T18:50:46.855Z,58.95
2018-10-03T18:53:14.132Z,59.53
2018-10-03T18:55:41.357Z,59.41
2018-10-03T18:58:08.652Z,58.99
2018-10-03T19:00:35.903Z,59.27
2018-10-03T19:03:03.408Z,59.23
2018-10-03T19:05:30.689Z,59.35
2018-10-03T19:07:58.093Z,59.13
2018-10-03T19:10:25.382Z,59.08
2018-10-03T19:12:52.672Z,59.32
2018-10-03T19:15:19.949Z,58.78
2018-10-03T19:17:47.300Z,59.27
2018-10-03T19:20:14.801Z,59.51
2018-10-03T19:22:42.094Z,59.55
2018-10-03T19:25:09.460Z,59.44
2018-10-03T19:27:36.869Z,60.14
2018-10-03T19:30:04.463Z,59.78
2018-10-03T19:32:32.439Z,60.12
2018-10-03T19:35:00.926Z,59.85
2018-10-03T19:37:28.278Z,60.06
2018-10-03T19:39:56.081Z,60.22
2018-10-03T19:42:23.470Z,59.63
2018-10-03T19:44:51.032Z,59.65
2018-10-03T19:47:18.377Z,59.87
2018-10-03T19:49:45.746Z,60.38
2018-10-03T19:52:13.090Z,59.83
2018-10-03T19:54:41.303Z,59.78
2018-10-03T19:57:09.557Z,59.97
2018-10-03T19:59:37.664Z,59.27
2018-10-03T20:02:05.059Z,59.40
2018-10-03T20:04:32.442Z,59.82
2018-10-03T20:07:01.424Z,59.95
2018-10-03T20:09:28.884Z,59.53
2018-10-03T20:11:56.867Z,59.61
2018-10-03T20:14:24.297Z,60.41
2018-10-03T20:16:52.349Z,59.81
2018-10-03T20:19:19.682Z,60.66
2018-10-03T20:21:48.381Z,60.74
2018-10-03T20:24:16.419Z,61.16
2018-10-03T20:26:44.405Z,60.68
2018-10-03T20:29:12.478Z,61.12
2018-10-03T20:31:39.786Z,61.01
2018-10-03T20:34:08.349Z,60.98
2018-10-03T20:36:35.684Z,61.58
2018-10-03T20:39:04.706Z,61.47
2018-10-03T20:41:32.117Z,61.61
2018-10-03T20:43:59.628Z,61.80
2018-10-03T20:46:26.933Z,62.05
2018-10-03T20:48:54.349Z,61.74
2018-10-03T20:51:22.441Z,61.93
2018-10-03T20:53:50.729Z,61.40
2018-10-03T20:56:18.164Z,62.17
2018-10-03T20:58:47.654Z,62.13
2018-10-03T21:01:15.067Z,62.43
2018-10-03T21:03:43.072Z,62.39
2018-10-03T21:06:12.342Z,62.80
2018-10-03T21:08:40.723Z,62.33
2018-10-03T21:11:10.908Z,62.28
2018-10-03T21:13:38.268Z,63.04
2018-10-03T21:16:05.945Z,63.34
2018-10-03T21:18:33.218Z,62.98
2018-10-03T21:21:01.939Z,63.56
2018-10-03T21:23:29.234Z,63.10
2018-10-03T21:25:57.881Z,63.33
2018-10-03T21:28:25.230Z,63.79
2018-10-03T21:31:05.284Z,63.81
2018-10-03T21:33:32.900Z,63.56
2018-10-03T21:36:09.318Z,63.55
2018-10-03T21:38:50.724Z,63.66
2018-10-03T21:41:31.928Z,63.56
2018-10-03T21:43:59.669Z,63.53
2018-10-03T21:46:29.948Z,63.88
2018-10-03T21:48:58.336Z,64.09
2018-10-03T21:51:40.126Z,64.19
2018-10-03T21:54:14.005Z,64.44
2018-10-03T21:56:46.721Z,64.31
2018-10-03T21:59:15.037Z,63.97
2018-10-03T22:01:43.038Z,64.31
2018-10-03T22:04:11.419Z,64.67
2018-10-03T22:06:38.721Z,64.73
2018-10-03T22:09:07.336Z,64.78
2018-10-03T22:11:35.091Z,65.33
2018-10-03T22:14:02.517Z,65.28
2018-10-03T22:16:29.961Z,65.23
2018-10-03T22:18:59.336Z,65.04
2018-10-03T22:21:28.400Z,64.79
2018-10-03T22:23:57.792Z,64.49
2018-10-03T22:26:25.206Z,64.89
2018-10-03T22:28:52.832Z,64.91
2018-10-03T22:31:21.967Z,65.09
2018-10-03T22:33:49.352Z,64.52
2018-10-03T22:36:16.683Z,64.54
2018-10-03T22:38:44.032Z,64.45
2018-10-03T22:41:11.368Z,64.78
2018-10-03T22:43:38.787Z,64.91
2018-10-03T22:46:06.642Z,65.44
2018-10-03T22:48:33.972Z,65.52
2018-10-03T22:51:01.709Z,66.10
2018-10-03T22:53:29.238Z,66.22
2018-10-03T22:55:56.688Z,66.69
2018-10-03T22:58:24.047Z,66.78
2018-10-03T23:00:53.085Z,67.17
2018-10-03T23:03:21.001Z,67.12
2018-10-03T23:05:48.345Z,67.33
2018-10-03T23:08:15.672Z,67.21
2018-10-03T23:10:42.973Z,67.34
2018-10-03T23:13:10.273Z,67.38
2018-10-03T23:15:37.637Z,67.83
2018-10-03T23:18:05.222Z,67.73
2018-10-03T23:20:32.575Z,67.79
2018-10-03T23:22:59.984Z,68.44
2018-10-03T23:25:27.437Z,68.54
2018-10-03T23:27:54.756Z,68.70
2018-10-03T23:30:22.100Z,68.54
2018-10-03T23:32:49.482Z,68.79
2018-10-03T23:35:16.960Z,68.82
2018-10-03T23:37:45.329Z,68.89
2018-10-03T23:40:12.694Z,67.88
2018-10-03T23:42:40.066Z,68.50
2018-10-03T23:45:07.481Z,68.74
2018-10-03T23:47:35.639Z,69.11
2018-10-03T23:50:03.098Z,68.54
2018-10-03T23:52:30.630Z,68.93
2018-10-03T23:54:57.984Z,68.96
2018-10-03T23:57:26.367Z,68.68
2018-10-03T23:59:53.649Z,68.65
